sensor_id;sensor_type;location;lat;lon;timestamp;pressure;altitude;pressure_sealevel;temperature;humidity
46778;BME280;32536;47.128;8.746;2023-04-15T00:00:12;90625.25;;;7.87;44.75
46778;BME280;32536;47.128;8.746;2023-04-15T00:02:41;90623.84;;;7.82;44.20
46778;BME280;32536;47.128;8.746;2023-04-15T00:05:08;90627.31;;;7.79;44.18
46778;BME280;32536;47.128;8.746;2023-04-15T00:07:34;90630.00;;;7.79;44.55
46778;BME280;32536;47.128;8.746;2023-04-15T00:10:01;90632.25;;;7.81;44.46
46778;BME280;32536;47.128;8.746;2023-04-15T00:12:29;90628.84;;;7.80;44.03
46778;BME280;32536;47.128;8.746;2023-04-15T00:14:55;90624.66;;;7.79;44.00
46778;BME280;32536;47.128;8.746;2023-04-15T00:17:23;90625.41;;;7.80;44.34
46778;BME280;32536;47.128;8.746;2023-04-15T00:19:50;90627.69;;;7.81;44.44
46778;BME280;32536;47.128;8.746;2023-04-15T00:22:17;90623.84;;;7.82;43.96
46778;BME280;32536;47.128;8.746;2023-04-15T00:24:43;90622.34;;;7.81;44.35
46778;BME280;32536;47.128;8.746;2023-04-15T00:27:10;90626.25;;;7.77;43.96
46778;BME280;32536;47.128;8.746;2023-04-15T00:29:37;90625.16;;;7.74;44.92
46778;BME280;32536;47.128;8.746;2023-04-15T00:32:04;90621.78;;;7.70;44.27
46778;BME280;32536;47.128;8.746;2023-04-15T00:34:49;90626.78;;;7.68;44.09
46778;BME280;32536;47.128;8.746;2023-04-15T00:37:16;90616.88;;;7.68;44.82
46778;BME280;32536;47.128;8.746;2023-04-15T00:39:43;90621.13;;;7.66;44.55
46778;BME280;32536;47.128;8.746;2023-04-15T00:42:09;90620.75;;;7.64;44.39
46778;BME280;32536;47.128;8.746;2023-04-15T00:44:37;90620.44;;;7.62;44.46
46778;BME280;32536;47.128;8.746;2023-04-15T00:47:04;90610.09;;;7.64;44.85
46778;BME280;32536;47.128;8.746;2023-04-15T00:49:31;90615.03;;;7.65;44.39
46778;BME280;32536;47.128;8.746;2023-04-15T00:51:58;90603.97;;;7.67;44.45
46778;BME280;32536;47.128;8.746;2023-04-15T00:54:24;90611.88;;;7.71;44.39
46778;BME280;32536;47.128;8.746;2023-04-15T00:56:51;90612.91;;;7.77;44.56
46778;BME280;32536;47.128;8.746;2023-04-15T00:59:19;90616.00;;;7.75;45.16
46778;BME280;32536;47.128;8.746;2023-04-15T01:01:46;90617.88;;;7.75;45.08
46778;BME280;32536;47.128;8.746;2023-04-15T01:04:13;90619.41;;;7.76;45.13
46778;BME280;32536;47.128;8.746;2023-04-15T01:06:41;90620.91;;;7.77;44.26
46778;BME280;32536;47.128;8.746;2023-04-15T01:09:07;90616.25;;;7.81;45.30
46778;BME280;32536;47.128;8.746;2023-04-15T01:11:34;90624.88;;;7.89;45.11
46778;BME280;32536;47.128;8.746;2023-04-15T01:14:01;90611.41;;;7.96;44.59
46778;BME280;32536;47.128;8.746;2023-04-15T01:16:28;90621.97;;;7.99;44.28
46778;BME280;32536;47.128;8.746;2023-04-15T01:18:55;90622.31;;;8.01;44.86
46778;BME280;32536;47.128;8.746;2023-04-15T01:21:22;90619.22;;;8.03;44.83
46778;BME280;32536;47.128;8.746;2023-04-15T01:23:49;90621.09;;;8.06;44.49
46778;BME280;32536;47.128;8.746;2023-04-15T01:26:17;90621.44;;;8.08;44.82
46778;BME280;32536;47.128;8.746;2023-04-15T01:28:44;90625.66;;;8.06;44.84
46778;BME280;32536;47.128;8.746;2023-04-15T01:31:12;90623.75;;;8.06;44.64
46778;BME280;32536;47.128;8.746;2023-04-15T01:33:40;90626.00;;;8.08;44.83
46778;BME280;32536;47.128;8.746;2023-04-15T01:36:09;90624.50;;;8.07;44.68
46778;BME280;32536;47.128;8.746;2023-04-15T01:38:36;90629.44;;;8.08;44.53
46778;BME280;32536;47.128;8.746;2023-04-15T01:41:04;90622.50;;;8.11;44.82
46778;BME280;32536;47.128;8.746;2023-04-15T01:43:34;90615.94;;;8.15;44.61
46778;BME280;32536;47.128;8.746;2023-04-15T01:46:02;90623.88;;;8.19;44.65
46778;BME280;32536;47.128;8.746;2023-04-15T01:48:28;90624.19;;;8.21;44.95
46778;BME280;32536;47.128;8.746;2023-04-15T01:50:55;90624.25;;;8.17;44.75
46778;BME280;32536;47.128;8.746;2023-04-15T01:53:23;90620.50;;;8.15;44.19
46778;BME280;32536;47.128;8.746;2023-04-15T01:55:50;90610.25;;;8.13;44.47
46778;BME280;32536;47.128;8.746;2023-04-15T01:58:18;90626.63;;;8.15;44.80
46778;BME280;32536;47.128;8.746;2023-04-15T02:00:45;90617.34;;;8.20;44.33
46778;BME280;32536;47.128;8.746;2023-04-15T02:03:11;90617.78;;;8.18;44.55
46778;BME280;32536;47.128;8.746;2023-04-15T02:05:38;90623.53;;;8.17;44.69
46778;BME280;32536;47.128;8.746;2023-04-15T02:08:05;90627.34;;;8.16;44.48
46778;BME280;32536;47.128;8.746;2023-04-15T02:10:32;90628.50;;;8.15;44.93
46778;BME280;32536;47.128;8.746;2023-04-15T02:12:58;90626.94;;;8.17;45.09
46778;BME280;32536;47.128;8.746;2023-04-15T02:15:25;90633.03;;;8.18;45.09
46778;BME280;32536;47.128;8.746;2023-04-15T02:17:52;90626.84;;;8.21;45.10
46778;BME280;32536;47.128;8.746;2023-04-15T02:20:20;90626.78;;;8.25;44.65
46778;BME280;32536;47.128;8.746;2023-04-15T02:22:47;90619.88;;;8.27;44.74
46778;BME280;32536;47.128;8.746;2023-04-15T02:25:14;90617.13;;;8.31;44.80
46778;BME280;32536;47.128;8.746;2023-04-15T02:27:44;90617.03;;;8.34;45.07
46778;BME280;32536;47.128;8.746;2023-04-15T02:30:11;90633.41;;;8.37;44.93
46778;BME280;32536;47.128;8.746;2023-04-15T02:32:39;90630.22;;;8.42;45.07
46778;BME280;32536;47.128;8.746;2023-04-15T02:35:08;90628.59;;;8.48;45.32
46778;BME280;32536;47.128;8.746;2023-04-15T02:37:36;90623.94;;;8.52;44.93
46778;BME280;32536;47.128;8.746;2023-04-15T02:40:08;90628.78;;;8.57;44.71
46778;BME280;32536;47.128;8.746;2023-04-15T02:42:38;90624.63;;;8.56;44.64
46778;BME280;32536;47.128;8.746;2023-04-15T02:45:06;90626.94;;;8.54;45.25
46778;BME280;32536;47.128;8.746;2023-04-15T02:47:34;90618.34;;;8.46;44.86
46778;BME280;32536;47.128;8.746;2023-04-15T02:50:04;90623.06;;;8.39;44.87
46778;BME280;32536;47.128;8.746;2023-04-15T02:52:40;90621.38;;;8.28;45.00
46778;BME280;32536;47.128;8.746;2023-04-15T02:55:08;90621.28;;;8.32;45.51
46778;BME280;32536;47.128;8.746;2023-04-15T02:57:35;90616.31;;;8.34;45.29
46778;BME280;32536;47.128;8.746;2023-04-15T03:00:06;90613.97;;;8.36;45.13
46778;BME280;32536;47.128;8.746;2023-04-15T03:02:35;90622.31;;;8.38;44.99
46778;BME280;32536;47.128;8.746;2023-04-15T03:05:03;90623.00;;;8.42;45.21
46778;BME280;32536;47.128;8.746;2023-04-15T03:07:30;90628.34;;;8.42;44.97
46778;BME280;32536;47.128;8.746;2023-04-15T03:09:57;90623.72;;;8.43;45.23
46778;BME280;32536;47.128;8.746;2023-04-15T03:12:24;90621.50;;;8.41;45.26
46778;BME280;32536;47.128;8.746;2023-04-15T03:14:50;90616.88;;;8.42;44.93
46778;BME280;32536;47.128;8.746;2023-04-15T03:17:17;90620.31;;;8.42;45.08
46778;BME280;32536;47.128;8.746;2023-04-15T03:19:44;90623.00;;;8.42;45.11
46778;BME280;32536;47.128;8.746;2023-04-15T03:22:10;90628.72;;;8.41;45.30
46778;BME280;32536;47.128;8.746;2023-04-15T03:24:37;90619.56;;;8.42;44.74
46778;BME280;32536;47.128;8.746;2023-04-15T03:27:04;90627.91;;;8.44;45.22
46778;BME280;32536;47.128;8.746;2023-04-15T03:29:32;90621.38;;;8.48;45.00
46778;BME280;32536;47.128;8.746;2023-04-15T03:31:59;90633.13;;;8.51;45.10
46778;BME280;32536;47.128;8.746;2023-04-15T03:34:26;90625.44;;;8.53;45.32
46778;BME280;32536;47.128;8.746;2023-04-15T03:36:53;90626.53;;;8.56;44.83
46778;BME280;32536;47.128;8.746;2023-04-15T03:39:20;90625.44;;;8.53;45.02
46778;BME280;32536;47.128;8.746;2023-04-15T03:41:47;90621.69;;;8.51;45.00
46778;BME280;32536;47.128;8.746;2023-04-15T03:44:14;90620.94;;;8.50;45.46
46778;BME280;32536;47.128;8.746;2023-04-15T03:46:41;90619.44;;;8.49;44.90
46778;BME280;32536;47.128;8.746;2023-04-15T03:49:07;90620.50;;;8.52;45.43
46778;BME280;32536;47.128;8.746;2023-04-15T03:51:34;90623.88;;;8.56;45.22
46778;BME280;32536;47.128;8.746;2023-04-15T03:54:01;90614.69;;;8.57;45.29
46778;BME280;32536;47.128;8.746;2023-04-15T03:56:28;90616.53;;;8.60;45.06
46778;BME280;32536;47.128;8.746;2023-04-15T03:58:55;90621.44;;;8.61;45.00
46778;BME280;32536;47.128;8.746;2023-04-15T04:01:21;90615.59;;;8.67;45.01
46778;BME280;32536;47.128;8.746;2023-04-15T04:03:48;90619.03;;;8.67;45.15
46778;BME280;32536;47.128;8.746;2023-04-15T04:06:15;90617.09;;;8.68;45.11
46778;BME280;32536;47.128;8.746;2023-04-15T04:08:42;90618.25;;;8.67;44.99
46778;BME280;32536;47.128;8.746;2023-04-15T04:11:08;90626.38;;;8.63;44.79
46778;BME280;32536;47.128;8.746;2023-04-15T04:13:44;90627.13;;;8.63;44.93
46778;BME280;32536;47.128;8.746;2023-04-15T04:16:11;90620.19;;;8.66;45.11
46778;BME280;32536;47.128;8.746;2023-04-15T04:18:38;90612.25;;;8.62;44.58
46778;BME280;32536;47.128;8.746;2023-04-15T04:21:04;90620.28;;;8.62;44.82
46778;BME280;32536;47.128;8.746;2023-04-15T04:23:31;90616.53;;;8.60;45.13
46778;BME280;32536;47.128;8.746;2023-04-15T04:25:58;90624.53;;;8.60;44.82
46778;BME280;32536;47.128;8.746;2023-04-15T04:28:25;90621.53;;;8.58;44.73
46778;BME280;32536;47.128;8.746;2023-04-15T04:30:52;90625.03;;;8.55;44.97
46778;BME280;32536;47.128;8.746;2023-04-15T04:33:19;90633.44;;;8.53;45.04
46778;BME280;32536;47.128;8.746;2023-04-15T04:35:45;90621.69;;;8.51;44.72
46778;BME280;32536;47.128;8.746;2023-04-15T04:38:12;90624.34;;;8.51;45.10
46778;BME280;32536;47.128;8.746;2023-04-15T04:40:39;90630.09;;;8.49;44.68
46778;BME280;32536;47.128;8.746;2023-04-15T04:43:06;90630.09;;;8.49;45.23
46778;BME280;32536;47.128;8.746;2023-04-15T04:45:32;90626.69;;;8.48;45.40
46778;BME280;32536;47.128;8.746;2023-04-15T04:47:59;90621.28;;;8.52;45.36
46778;BME280;32536;47.128;8.746;2023-04-15T04:50:26;90615.88;;;8.56;44.85
46778;BME280;32536;47.128;8.746;2023-04-15T04:52:53;90626.13;;;8.57;44.89
46778;BME280;32536;47.128;8.746;2023-04-15T04:55:19;90619.28;;;8.56;45.26
46778;BME280;32536;47.128;8.746;2023-04-15T04:57:46;90617.69;;;8.59;45.27
46778;BME280;32536;47.128;8.746;2023-04-15T05:00:13;90623.78;;;8.59;45.21
46778;BME280;32536;47.128;8.746;2023-04-15T05:02:40;90610.84;;;8.58;44.99
46778;BME280;32536;47.128;8.746;2023-04-15T05:05:09;90619.19;;;8.60;44.92
46778;BME280;32536;47.128;8.746;2023-04-15T05:07:36;90616.94;;;8.58;44.96
46778;BME280;32536;47.128;8.746;2023-04-15T05:10:04;90623.44;;;8.57;44.95
46778;BME280;32536;47.128;8.746;2023-04-15T05:12:32;90624.69;;;8.53;44.90
46778;BME280;32536;47.128;8.746;2023-04-15T05:14:58;90621.69;;;8.51;45.09
46778;BME280;32536;47.128;8.746;2023-04-15T05:17:25;90625.84;;;8.52;44.95
46778;BME280;32536;47.128;8.746;2023-04-15T05:19:52;90626.94;;;8.54;44.98
46778;BME280;32536;47.128;8.746;2023-04-15T05:22:18;90629.53;;;8.58;44.95
46778;BME280;32536;47.128;8.746;2023-04-15T05:24:45;90627.63;;;8.58;45.05
46778;BME280;32536;47.128;8.746;2023-04-15T05:27:12;90630.69;;;8.57;45.23
46778;BME280;32536;47.128;8.746;2023-04-15T05:29:38;90629.28;;;8.52;45.03
46778;BME280;32536;47.128;8.746;2023-04-15T05:32:05;90632.34;;;8.51;45.48
46778;BME280;32536;47.128;8.746;2023-04-15T05:34:32;90625.53;;;8.49;45.48
46778;BME280;32536;47.128;8.746;2023-04-15T05:36:59;90632.44;;;8.47;45.46
46778;BME280;32536;47.128;8.746;2023-04-15T05:39:26;90635.91;;;8.44;45.99
46778;BME280;32536;47.128;8.746;2023-04-15T05:41:52;90625.59;;;8.46;46.04
46778;BME280;32536;47.128;8.746;2023-04-15T05:44:19;90640.72;;;8.53;45.83
46778;BME280;32536;47.128;8.746;2023-04-15T05:46:46;90632.88;;;8.62;45.84
46778;BME280;32536;47.128;8.746;2023-04-15T05:49:12;90636.47;;;8.72;45.58
46778;BME280;32536;47.128;8.746;2023-04-15T05:51:39;90630.97;;;8.79;45.54
46778;BME280;32536;47.128;8.746;2023-04-15T05:54:06;90634.66;;;8.85;45.36
46778;BME280;32536;47.128;8.746;2023-04-15T05:56:32;90631.47;;;8.90;45.80
46778;BME280;32536;47.128;8.746;2023-04-15T05:58:59;90629.44;;;8.94;45.58
46778;BME280;32536;47.128;8.746;2023-04-15T06:01:26;90625.88;;;9.01;45.70
46778;BME280;32536;47.128;8.746;2023-04-15T06:03:53;90630.38;;;9.04;45.76
46778;BME280;32536;47.128;8.746;2023-04-15T06:06:20;90631.13;;;9.05;45.59
46778;BME280;32536;47.128;8.746;2023-04-15T06:08:46;90626.09;;;9.07;45.56
46778;BME280;32536;47.128;8.746;2023-04-15T06:11:13;90631.03;;;9.08;45.47
46778;BME280;32536;47.128;8.746;2023-04-15T06:13:51;90628.03;;;9.06;45.35
46778;BME280;32536;47.128;8.746;2023-04-15T06:16:18;90626.88;;;9.07;45.30
46778;BME280;32536;47.128;8.746;2023-04-15T06:18:44;90631.78;;;9.09;45.34
46778;BME280;32536;47.128;8.746;2023-04-15T06:21:11;90620.66;;;9.10;45.45
46778;BME280;32536;47.128;8.746;2023-04-15T06:23:38;90620.28;;;9.12;45.28
46778;BME280;32536;47.128;8.746;2023-04-15T06:26:06;90626.34;;;9.12;45.24
46778;BME280;32536;47.128;8.746;2023-04-15T06:28:33;90619.09;;;9.13;45.54
46778;BME280;32536;47.128;8.746;2023-04-15T06:31:00;90617.59;;;9.12;45.38
46778;BME280;32536;47.128;8.746;2023-04-15T06:33:26;90619.84;;;9.13;45.49
46778;BME280;32536;47.128;8.746;2023-04-15T06:35:53;90620.28;;;9.12;45.75
46778;BME280;32536;47.128;8.746;2023-04-15T06:38:20;90623.16;;;9.18;45.87
46778;BME280;32536;47.128;8.746;2023-04-15T06:40:47;90615.06;;;9.21;45.61
46778;BME280;32536;47.128;8.746;2023-04-15T06:43:13;90619.25;;;9.22;45.95
46778;BME280;32536;47.128;8.746;2023-04-15T06:45:40;90618.41;;;9.25;45.66
46778;BME280;32536;47.128;8.746;2023-04-15T06:48:07;90629.00;;;9.29;45.51
46778;BME280;32536;47.128;8.746;2023-04-15T06:50:34;90622.06;;;9.32;45.76
46778;BME280;32536;47.128;8.746;2023-04-15T06:53:00;90620.06;;;9.36;45.50
46778;BME280;32536;47.128;8.746;2023-04-15T06:55:27;90626.56;;;9.35;45.31
46778;BME280;32536;47.128;8.746;2023-04-15T06:57:54;90620.47;;;9.34;45.67
46778;BME280;32536;47.128;8.746;2023-04-15T07:00:21;90621.56;;;9.37;45.53
46778;BME280;32536;47.128;8.746;2023-04-15T07:02:47;90626.81;;;9.40;45.63
46778;BME280;32536;47.128;8.746;2023-04-15T07:05:15;90623.63;;;9.45;45.63
46778;BME280;32536;47.128;8.746;2023-04-15T07:07:41;90626.97;;;9.50;45.26
46778;BME280;32536;47.128;8.746;2023-04-15T07:10:08;90625.38;;;9.52;45.70
46778;BME280;32536;47.128;8.746;2023-04-15T07:12:36;90619.16;;;9.55;45.33
46778;BME280;32536;47.128;8.746;2023-04-15T07:15:03;90617.56;;;9.58;45.67
46778;BME280;32536;47.128;8.746;2023-04-15T07:17:31;90625.41;;;9.65;45.15
46778;BME280;32536;47.128;8.746;2023-04-15T07:19:58;90620.19;;;9.74;45.61
46778;BME280;32536;47.128;8.746;2023-04-15T07:22:24;90614.97;;;9.84;45.25
46778;BME280;32536;47.128;8.746;2023-04-15T07:24:51;90617.78;;;9.93;44.99
46778;BME280;32536;47.128;8.746;2023-04-15T07:27:18;90619.09;;;10.01;45.13
46778;BME280;32536;47.128;8.746;2023-04-15T07:29:44;90609.78;;;10.06;45.08
46778;BME280;32536;47.128;8.746;2023-04-15T07:32:11;90617.72;;;10.09;45.15
46778;BME280;32536;47.128;8.746;2023-04-15T07:34:38;90617.72;;;10.09;45.06
46778;BME280;32536;47.128;8.746;2023-04-15T07:37:04;90609.59;;;10.13;44.91
46778;BME280;32536;47.128;8.746;2023-04-15T07:39:31;90618.91;;;10.21;45.15
46778;BME280;32536;47.128;8.746;2023-04-15T07:41:58;90617.09;;;10.31;45.58
46778;BME280;32536;47.128;8.746;2023-04-15T07:44:25;90617.22;;;10.40;45.03
46778;BME280;32536;47.128;8.746;2023-04-15T07:46:52;90615.09;;;10.48;45.20
46778;BME280;32536;47.128;8.746;2023-04-15T07:49:19;90613.69;;;10.56;45.31
46778;BME280;32536;47.128;8.746;2023-04-15T07:51:46;90608.97;;;10.61;45.09
46778;BME280;32536;47.128;8.746;2023-04-15T07:54:14;90607.38;;;10.50;45.09
46778;BME280;32536;47.128;8.746;2023-04-15T07:56:41;90619.59;;;10.38;45.13
46778;BME280;32536;47.128;8.746;2023-04-15T07:59:08;90610.66;;;10.29;44.96
46778;BME280;32536;47.128;8.746;2023-04-15T08:01:35;90603.16;;;10.23;45.56
46778;BME280;32536;47.128;8.746;2023-04-15T08:04:02;90609.59;;;10.13;45.76
46778;BME280;32536;47.128;8.746;2023-04-15T08:06:29;90611.81;;;10.02;45.38
46778;BME280;32536;47.128;8.746;2023-04-15T08:08:56;90610.41;;;9.97;46.03
46778;BME280;32536;47.128;8.746;2023-04-15T08:11:22;90605.38;;;9.99;45.87
46778;BME280;32536;47.128;8.746;2023-04-15T08:13:58;90610.00;;;9.99;45.70
46778;BME280;32536;47.128;8.746;2023-04-15T08:16:25;90608.81;;;10.00;46.03
46778;BME280;32536;47.128;8.746;2023-04-15T08:18:54;90606.16;;;10.00;45.75
46778;BME280;32536;47.128;8.746;2023-04-15T08:21:22;90615.66;;;10.01;45.76
46778;BME280;32536;47.128;8.746;2023-04-15T08:23:51;90618.31;;;10.01;45.61
46778;BME280;32536;47.128;8.746;2023-04-15T08:26:19;90617.47;;;10.04;45.82
46778;BME280;32536;47.128;8.746;2023-04-15T08:28:47;90618.78;;;10.12;45.54
46778;BME280;32536;47.128;8.746;2023-04-15T08:31:15;90623.72;;;10.14;45.73
46778;BME280;32536;47.128;8.746;2023-04-15T08:33:43;90620.50;;;10.19;45.84
46778;BME280;32536;47.128;8.746;2023-04-15T08:36:10;90616.88;;;10.25;45.51
46778;BME280;32536;47.128;8.746;2023-04-15T08:38:38;90610.56;;;10.32;45.38
46778;BME280;32536;47.128;8.746;2023-04-15T08:41:22;90616.59;;;10.36;45.33
46778;BME280;32536;47.128;8.746;2023-04-15T08:43:56;90620.44;;;10.35;45.88
46778;BME280;32536;47.128;8.746;2023-04-15T08:46:24;90615.19;;;10.32;45.53
46778;BME280;32536;47.128;8.746;2023-04-15T08:48:55;90613.44;;;10.25;45.78
46778;BME280;32536;47.128;8.746;2023-04-15T08:51:23;90614.50;;;10.28;45.61
46778;BME280;32536;47.128;8.746;2023-04-15T08:53:51;90622.13;;;10.29;46.01
46778;BME280;32536;47.128;8.746;2023-04-15T08:56:23;90616.78;;;10.29;45.99
46778;BME280;32536;47.128;8.746;2023-04-15T08:58:53;90611.72;;;10.31;45.51
46778;BME280;32536;47.128;8.746;2023-04-15T09:01:20;90622.03;;;10.33;45.89
46778;BME280;32536;47.128;8.746;2023-04-15T09:03:48;90623.63;;;10.30;45.55
46778;BME280;32536;47.128;8.746;2023-04-15T09:06:16;90625.00;;;10.22;45.88
46778;BME280;32536;47.128;8.746;2023-04-15T09:08:43;90629.81;;;10.14;46.00
46778;BME280;32536;47.128;8.746;2023-04-15T09:11:10;90626.25;;;10.04;46.11
46778;BME280;32536;47.128;8.746;2023-04-15T09:14:05;90640.34;;;9.92;46.14
46778;BME280;32536;47.128;8.746;2023-04-15T09:17:09;90633.78;;;9.80;46.14
46778;BME280;32536;47.128;8.746;2023-04-15T09:19:36;90641.31;;;9.85;46.36
46778;BME280;32536;47.128;8.746;2023-04-15T09:22:03;90648.47;;;9.88;46.15
46778;BME280;32536;47.128;8.746;2023-04-15T09:24:38;90644.28;;;9.87;45.95
46778;BME280;32536;47.128;8.746;2023-04-15T09:27:06;90648.91;;;9.87;45.61
46778;BME280;32536;47.128;8.746;2023-04-15T09:29:33;90666.56;;;9.84;46.32
46778;BME280;32536;47.128;8.746;2023-04-15T09:32:13;90658.28;;;9.78;46.27
46778;BME280;32536;47.128;8.746;2023-04-15T09:34:41;90667.16;;;9.75;46.30
46778;BME280;32536;47.128;8.746;2023-04-15T09:37:07;90666.09;;;9.73;46.27
46778;BME280;32536;47.128;8.746;2023-04-15T09:39:50;90663.91;;;9.68;46.99
46778;BME280;32536;47.128;8.746;2023-04-15T09:42:17;90666.94;;;9.70;46.44
46778;BME280;32536;47.128;8.746;2023-04-15T09:44:51;90674.44;;;9.75;46.48
46778;BME280;32536;47.128;8.746;2023-04-15T09:47:30;90667.81;;;9.80;46.77
46778;BME280;32536;47.128;8.746;2023-04-15T09:49:58;90668.91;;;9.82;45.91
46778;BME280;32536;47.128;8.746;2023-04-15T09:52:26;90670.59;;;9.76;46.46
46778;BME280;32536;47.128;8.746;2023-04-15T09:54:54;90672.28;;;9.70;46.58
46778;BME280;32536;47.128;8.746;2023-04-15T09:57:24;90675.81;;;9.67;46.68
46778;BME280;32536;47.128;8.746;2023-04-15T09:59:51;90674.06;;;9.60;46.97
46778;BME280;32536;47.128;8.746;2023-04-15T10:02:19;90674.66;;;9.51;46.95
46778;BME280;32536;47.128;8.746;2023-04-15T10:04:47;90674.84;;;9.44;47.02
46778;BME280;32536;47.128;8.746;2023-04-15T10:07:14;90679.53;;;9.40;46.77
46778;BME280;32536;47.128;8.746;2023-04-15T10:09:45;90686.13;;;9.35;47.03
46778;BME280;32536;47.128;8.746;2023-04-15T10:12:15;90677.78;;;9.33;47.26
46778;BME280;32536;47.128;8.746;2023-04-15T10:14:43;90671.00;;;9.28;47.38
46778;BME280;32536;47.128;8.746;2023-04-15T10:17:10;90678.03;;;9.22;47.53
46778;BME280;32536;47.128;8.746;2023-04-15T10:19:37;90674.69;;;9.18;47.41
46778;BME280;32536;47.128;8.746;2023-04-15T10:22:05;90676.59;;;9.18;47.44
46778;BME280;32536;47.128;8.746;2023-04-15T10:24:32;90677.78;;;9.17;47.49
46778;BME280;32536;47.128;8.746;2023-04-15T10:26:59;90686.91;;;9.19;47.38
46778;BME280;32536;47.128;8.746;2023-04-15T10:29:29;90683.72;;;9.24;47.58
46778;BME280;32536;47.128;8.746;2023-04-15T10:32:00;90680.97;;;9.28;49.36
46778;BME280;32536;47.128;8.746;2023-04-15T10:34:28;90679.78;;;9.29;48.62
46778;BME280;32536;47.128;8.746;2023-04-15T10:37:00;90684.19;;;9.36;48.49
46778;BME280;32536;47.128;8.746;2023-04-15T10:39:39;90680.63;;;9.42;48.52
46778;BME280;32536;47.128;8.746;2023-04-15T10:42:10;90682.69;;;9.51;47.78
46778;BME280;32536;47.128;8.746;2023-04-15T10:44:41;90688.69;;;9.55;48.33
46778;BME280;32536;47.128;8.746;2023-04-15T10:47:19;90683.59;;;9.61;48.29
46778;BME280;32536;47.128;8.746;2023-04-15T10:50:04;90687.41;;;9.60;51.39
46778;BME280;32536;47.128;8.746;2023-04-15T10:52:31;90690.34;;;9.66;48.10
46778;BME280;32536;47.128;8.746;2023-04-15T10:55:11;90691.84;;;9.67;48.92
46778;BME280;32536;47.128;8.746;2023-04-15T10:57:43;90696.59;;;9.75;48.09
46778;BME280;32536;47.128;8.746;2023-04-15T11:00:11;90696.31;;;9.86;47.42
46778;BME280;32536;47.128;8.746;2023-04-15T11:02:55;90702.31;;;9.90;48.08
46778;BME280;32536;47.128;8.746;2023-04-15T11:08:14;90707.47;;;9.98;47.08
46778;BME280;32536;47.128;8.746;2023-04-15T11:15:46;90721.03;;;9.90;47.66
46778;BME280;32536;47.128;8.746;2023-04-15T11:18:15;90719.88;;;9.91;47.25
46778;BME280;32536;47.128;8.746;2023-04-15T11:23:18;90731.22;;;9.96;47.18
46778;BME280;32536;47.128;8.746;2023-04-15T11:25:56;90731.75;;;9.90;47.02
46778;BME280;32536;47.128;8.746;2023-04-15T11:28:25;90734.94;;;9.85;47.56
46778;BME280;32536;47.128;8.746;2023-04-15T11:30:56;90741.63;;;9.77;47.26
46778;BME280;32536;47.128;8.746;2023-04-15T11:33:23;90750.81;;;9.76;47.47
46778;BME280;32536;47.128;8.746;2023-04-15T11:35:53;90748.75;;;9.67;47.64
46778;BME280;32536;47.128;8.746;2023-04-15T11:38:20;90751.84;;;9.66;47.43
46778;BME280;32536;47.128;8.746;2023-04-15T11:40:49;90755.25;;;9.66;47.63
46778;BME280;32536;47.128;8.746;2023-04-15T11:43:18;90758.28;;;9.68;47.67
46778;BME280;32536;47.128;8.746;2023-04-15T11:45:48;90765.97;;;9.66;47.34
46778;BME280;32536;47.128;8.746;2023-04-15T11:48:20;90771.56;;;9.72;47.43
46778;BME280;32536;47.128;8.746;2023-04-15T11:50:58;90768.56;;;9.70;47.43
46778;BME280;32536;47.128;8.746;2023-04-15T11:56:17;90785.75;;;9.69;49.57
46778;BME280;32536;47.128;8.746;2023-04-15T11:58:55;90785.84;;;9.65;48.92
46778;BME280;32536;47.128;8.746;2023-04-15T12:01:35;90789.03;;;9.60;49.74
46778;BME280;32536;47.128;8.746;2023-04-15T12:04:13;90792.88;;;9.59;48.56
46778;BME280;32536;47.128;8.746;2023-04-15T12:06:42;90799.66;;;9.64;47.40
46778;BME280;32536;47.128;8.746;2023-04-15T12:09:13;90796.16;;;9.67;47.82
46778;BME280;32536;47.128;8.746;2023-04-15T12:11:51;90807.25;;;9.65;50.57
46778;BME280;32536;47.128;8.746;2023-04-15T12:16:55;90813.34;;;9.66;48.53
46778;BME280;32536;47.128;8.746;2023-04-15T12:19:29;90818.72;;;9.66;49.11
46778;BME280;32536;47.128;8.746;2023-04-15T12:22:09;90821.69;;;9.68;48.86
46778;BME280;32536;47.128;8.746;2023-04-15T12:24:38;90824.19;;;9.75;48.37
46778;BME280;32536;47.128;8.746;2023-04-15T12:27:06;90826.56;;;9.73;49.42
46778;BME280;32536;47.128;8.746;2023-04-15T12:29:37;90823.88;;;9.73;48.52
46778;BME280;32536;47.128;8.746;2023-04-15T12:32:12;90833.41;;;9.74;49.58
46778;BME280;32536;47.128;8.746;2023-04-15T12:34:43;90834.06;;;9.78;48.78
46778;BME280;32536;47.128;8.746;2023-04-15T12:37:15;90832.56;;;9.77;48.96
46778;BME280;32536;47.128;8.746;2023-04-15T12:39:44;90857.06;;;9.75;49.44
46778;BME280;32536;47.128;8.746;2023-04-15T12:42:14;90853.22;;;9.76;48.61
46778;BME280;32536;47.128;8.746;2023-04-15T12:44:41;90861.25;;;9.76;48.53
46778;BME280;32536;47.128;8.746;2023-04-15T12:47:09;90858.97;;;9.75;48.68
46778;BME280;32536;47.128;8.746;2023-04-15T12:49:37;90862.06;;;9.73;48.59
46778;BME280;32536;47.128;8.746;2023-04-15T12:52:04;90873.19;;;9.72;48.88
46778;BME280;32536;47.128;8.746;2023-04-15T12:54:33;90873.13;;;9.75;48.58
46778;BME280;32536;47.128;8.746;2023-04-15T12:57:01;90877.97;;;9.81;48.53
46778;BME280;32536;47.128;8.746;2023-04-15T12:59:28;90874.13;;;9.82;48.81
46778;BME280;32536;47.128;8.746;2023-04-15T13:01:54;90885.63;;;9.78;48.84
46778;BME280;32536;47.128;8.746;2023-04-15T13:04:21;90886.72;;;9.81;48.63
46778;BME280;32536;47.128;8.746;2023-04-15T13:06:48;90883.56;;;9.86;48.56
46778;BME280;32536;47.128;8.746;2023-04-15T13:09:15;90884.72;;;9.85;48.61
46778;BME280;32536;47.128;8.746;2023-04-15T13:11:42;90894.19;;;9.90;49.11
46778;BME280;32536;47.128;8.746;2023-04-15T13:14:17;90892.00;;;9.85;50.93
46778;BME280;32536;47.128;8.746;2023-04-15T13:16:43;90900.88;;;9.82;49.25
46778;BME280;32536;47.128;8.746;2023-04-15T13:19:10;90896.34;;;9.78;49.04
46778;BME280;32536;47.128;8.746;2023-04-15T13:21:37;90900.59;;;9.76;48.50
46778;BME280;32536;47.128;8.746;2023-04-15T13:24:03;90906.72;;;9.76;48.69
46778;BME280;32536;47.128;8.746;2023-04-15T13:26:31;90905.53;;;9.77;49.02
46778;BME280;32536;47.128;8.746;2023-04-15T13:28:59;90909.47;;;9.73;49.16
46778;BME280;32536;47.128;8.746;2023-04-15T13:31:26;90914.47;;;9.71;49.11